Terminal Aerodrome Forecast
Issued by NWS

Home | Current Version | Previous Version | Text Only | Print | Product List | Glossary On
Versions: 1 2 3 4 5 6 7 8 9 10 11 12 13 14 15
323
FTPA31 PHFO 101734 AAA
TAFHOG
TAF AMD
PHOG 101734Z 1018/1118 19005KT 6SM RA SCT017 BKN045 OVC080
      TEMPO 1018/1019 3SM SHRA BR BKN010 BKN035
     FM102000 20011KT 6SM RA SCT022 BKN045 OVC080
     FM110500 18006KT P6SM VCSH SCT030 BKN060 OVC100=

USA.gov is the U.S. government's official web portal to all federal, state and local government web resources and services.